Time;durP1;ratioP1;P1;durP2;ratioP2;P2;SDS_P1;SDS_P2;PMS_P1;PMS_P2;Temp;Humidity;BMP_temperature;BMP_pressure;BME280_temperature;BME280_humidity;BME280_pressure;Samples;Min_cycle;Max_cycle;Signal;HPM_P1;HPM_P2
2024/01/06 00:01:58;;;;;;;16.65;12.90;;;2.30;99.90;;;;;;5070994;28;20040;-72
2024/01/06 00:04:24;;;;;;;14.82;13.18;;;1.90;99.90;;;;;;5071343;28;20593;-72
2024/01/06 00:06:49;;;;;;;16.65;13.95;;;2.00;99.90;;;;;;5070629;28;20058;-71
2024/01/06 00:09:15;;;;;;;17.33;14.27;;;2.10;99.90;;;;;;5054263;28;20051;-72
2024/01/06 00:11:41;;;;;;;16.83;13.50;;;2.00;99.90;;;;;;5071344;28;20045;-72
2024/01/06 00:14:06;;;;;;;16.65;14.02;;;2.00;99.90;;;;;;5072178;28;20051;-72
2024/01/06 00:16:32;;;;;;;16.30;13.80;;;2.00;99.90;;;;;;5072086;28;20044;-71
2024/01/06 00:18:59;;;;;;;16.38;13.00;;;2.00;99.90;;;;;;5037759;28;20088;-72
2024/01/06 00:21:25;;;;;;;15.77;12.23;;;2.00;99.90;;;;;;5070908;28;20059;-72
2024/01/06 00:23:50;;;;;;;14.77;12.60;;;2.00;99.90;;;;;;5071763;28;20053;-72
2024/01/06 00:26:16;;;;;;;14.38;12.68;;;2.00;99.90;;;;;;5071215;28;20424;-73
2024/01/06 00:28:42;;;;;;;14.63;13.00;;;1.90;99.90;;;;;;5071723;28;20083;-71
2024/01/06 00:31:07;;;;;;;14.48;12.98;;;1.90;99.90;;;;;;5071065;28;20044;-71
2024/01/06 00:33:33;;;;;;;15.00;13.40;;;1.90;99.90;;;;;;5071200;28;20045;-73
2024/01/06 00:35:59;;;;;;;14.45;12.90;;;1.90;99.90;;;;;;5072031;28;20467;-72
2024/01/06 00:38:25;;;;;;;15.90;13.65;;;1.90;99.90;;;;;;5070847;28;20048;-72
2024/01/06 00:40:51;;;;;;;17.80;14.68;;;1.90;99.90;;;;;;5070626;28;20048;-72
2024/01/06 00:43:16;;;;;;;16.63;13.82;;;1.90;99.90;;;;;;5071007;28;20044;-72
2024/01/06 00:45:42;;;;;;;16.30;13.35;;;1.90;99.90;;;;;;5071639;28;20055;-72
2024/01/06 00:48:08;;;;;;;15.80;13.50;;;2.00;99.90;;;;;;5070898;28;20518;-72
2024/01/06 00:50:33;;;;;;;16.92;14.05;;;2.50;99.90;;;;;;5072009;28;20055;-72
2024/01/06 00:52:59;;;;;;;17.20;13.77;;;1.90;99.90;;;;;;5053659;28;20053;-72
2024/01/06 00:55:25;;;;;;;15.60;13.23;;;1.90;99.90;;;;;;5070503;28;20059;-73
2024/01/06 00:57:51;;;;;;;15.23;13.00;;;1.90;99.90;;;;;;5070610;28;20053;-72
2024/01/06 01:00:16;;;;;;;16.60;14.35;;;1.90;99.90;;;;;;5070743;28;20048;-72
2024/01/06 01:02:42;;;;;;;14.63;13.10;;;1.90;99.90;;;;;;5071083;28;20041;-71
2024/01/06 01:05:08;;;;;;;16.73;14.10;;;2.80;99.90;;;;;;5054560;28;20044;-72
2024/01/06 01:07:34;;;;;;;14.95;12.27;;;2.00;99.90;;;;;;5074705;28;20325;-72
2024/01/06 01:10:00;;;;;;;15.23;12.75;;;1.90;99.90;;;;;;5075193;28;20677;-72
2024/01/06 01:12:26;;;;;;;14.68;12.32;;;1.90;99.90;;;;;;5074255;28;20049;-72
2024/01/06 01:14:52;;;;;;;15.48;12.23;;;1.80;99.90;;;;;;5075063;28;20084;-72
2024/01/06 01:17:18;;;;;;;12.90;11.15;;;1.80;99.90;;;;;;5075500;28;20079;-72
2024/01/06 01:19:44;;;;;;;13.43;11.75;;;1.80;99.90;;;;;;5075093;28;20078;-72
2024/01/06 01:22:10;;;;;;;15.60;11.60;;;1.80;99.90;;;;;;5074370;28;20400;-72
2024/01/06 01:24:36;;;;;;;14.45;11.38;;;1.80;99.90;;;;;;5074404;28;20048;-72
2024/01/06 01:27:01;;;;;;;14.05;11.32;;;1.70;99.90;;;;;;5075047;28;20067;-72
2024/01/06 01:29:27;;;;;;;15.35;11.93;;;1.80;99.90;;;;;;5057563;28;20047;-72
2024/01/06 01:31:53;;;;;;;14.45;11.98;;;1.80;99.90;;;;;;5073762;28;20045;-73
2024/01/06 01:34:19;;;;;;;15.30;11.55;;;1.80;99.90;;;;;;5075184;28;20084;-73
2024/01/06 01:36:45;;;;;;;13.95;12.13;;;1.80;99.90;;;;;;5073582;28;20483;-72
2024/01/06 01:39:11;;;;;;;15.75;12.90;;;1.80;99.90;;;;;;5073805;28;20079;-73
2024/01/06 01:41:36;;;;;;;14.25;11.38;;;1.80;99.90;;;;;;5073675;28;20044;-73
2024/01/06 01:44:02;;;;;;;13.95;11.95;;;1.80;99.90;;;;;;5073634;28;20044;-72
2024/01/06 01:46:29;;;;;;;13.38;10.90;;;1.80;99.90;;;;;;5074810;28;20131;-72
2024/01/06 01:48:56;;;;;;;12.73;10.55;;;1.80;99.90;;;;;;5072972;28;20051;-72
2024/01/06 01:51:22;;;;;;;13.73;10.70;;;1.70;99.90;;;;;;5074726;28;20097;-72
2024/01/06 01:53:49;;;;;;;12.82;10.85;;;1.80;99.90;;;;;;5073089;28;20091;-72
2024/01/06 01:56:16;;;;;;;12.63;11.07;;;1.80;99.90;;;;;;5056340;28;20479;-73
2024/01/06 01:58:42;;;;;;;14.50;11.75;;;1.60;99.90;;;;;;5073706;28;20052;-72
2024/01/06 02:01:08;;;;;;;15.60;11.68;;;1.70;99.90;;;;;;5072973;28;20047;-73
2024/01/06 02:03:35;;;;;;;14.30;11.90;;;1.70;99.90;;;;;;5073435;28;20123;-72
2024/01/06 02:06:01;;;;;;;14.57;12.13;;;1.60;99.90;;;;;;5090052;28;20059;-72
2024/01/06 02:08:27;;;;;;;13.20;11.82;;;1.60;99.90;;;;;;5073297;28;20098;-72
2024/01/06 02:10:56;;;;;;;14.98;12.13;;;1.60;99.90;;;;;;5072914;28;20044;-72
2024/01/06 02:13:22;;;;;;;15.45;11.32;;;1.60;99.90;;;;;;5056756;28;20502;-73
2024/01/06 02:15:48;;;;;;;15.82;11.68;;;1.60;99.90;;;;;;5074187;28;20051;-72
2024/01/06 02:18:14;;;;;;;13.55;11.15;;;1.50;99.90;;;;;;5073298;28;20044;-73
2024/01/06 02:20:46;;;;;;;14.48;11.27;;;1.60;99.90;;;;;;5023552;28;20488;-72
2024/01/06 02:23:12;;;;;;;12.82;10.70;;;1.50;99.90;;;;;;5072917;28;20048;-73
2024/01/06 02:25:37;;;;;;;15.98;11.98;;;1.50;99.90;;;;;;5073246;28;20051;-73
2024/01/06 02:28:03;;;;;;;16.00;11.05;;;1.70;99.90;;;;;;5039013;28;20040;-72
2024/01/06 02:30:29;;;;;;;15.85;12.60;;;1.50;99.90;;;;;;5056265;28;20105;-72
2024/01/06 02:32:54;;;;;;;13.40;11.57;;;1.60;99.90;;;;;;5071955;28;20467;-73
2024/01/06 02:35:21;;;;;;;12.75;11.35;;;2.50;99.90;;;;;;5072755;28;20055;-73
2024/01/06 02:37:46;;;;;;;13.70;11.73;;;1.50;99.90;;;;;;5056178;28;20086;-74
2024/01/06 02:40:13;;;;;;;13.95;11.98;;;1.50;99.90;;;;;;5055817;28;20084;-73
2024/01/06 02:42:39;;;;;;;14.05;11.90;;;1.50;99.90;;;;;;5073746;28;20048;-73
2024/01/06 02:45:06;;;;;;;14.48;11.50;;;1.50;99.90;;;;;;5072318;28;20051;-73
2024/01/06 02:47:32;;;;;;;12.93;11.00;;;1.50;99.90;;;;;;5072655;28;20040;-73
2024/01/06 02:49:57;;;;;;;12.02;10.35;;;1.40;99.90;;;;;;5072295;28;20501;-73
2024/01/06 02:52:23;;;;;;;13.27;10.25;;;1.50;99.90;;;;;;5072781;28;20083;-73
2024/01/06 02:54:49;;;;;;;13.90;11.35;;;1.50;99.90;;;;;;5072259;28;20057;-73
2024/01/06 02:57:15;;;;;;;13.40;10.60;;;1.50;99.90;;;;;;5072159;28;20045;-74
2024/01/06 02:59:40;;;;;;;14.40;10.55;;;1.50;99.90;;;;;;5072494;28;20036;-73
2024/01/06 03:02:07;;;;;;;15.27;11.52;;;1.90;99.90;;;;;;5055507;28;20446;-74
2024/01/06 03:04:32;;;;;;;12.60;10.70;;;2.60;99.90;;;;;;5072603;28;20048;-73
2024/01/06 03:06:58;;;;;;;16.30;12.88;;;1.40;99.90;;;;;;5071811;28;20094;-72
2024/01/06 03:09:24;;;;;;;17.38;12.40;;;1.40;99.90;;;;;;5055631;28;20048;-73
2024/01/06 03:11:49;;;;;;;18.75;12.88;;;1.50;99.90;;;;;;5072314;28;20040;-73
2024/01/06 03:14:15;;;;;;;16.73;13.15;;;1.40;99.90;;;;;;5071713;28;20484;-73
2024/01/06 03:16:41;;;;;;;17.00;13.40;;;1.40;99.90;;;;;;5055171;28;20048;-72
2024/01/06 03:19:06;;;;;;;18.40;15.05;;;1.40;99.90;;;;;;5072490;28;20448;-73
2024/01/06 03:21:32;;;;;;;18.15;14.73;;;1.40;99.90;;;;;;5055805;28;20476;-73
2024/01/06 03:23:58;;;;;;;17.27;14.15;;;1.40;99.90;;;;;;5072189;28;20538;-71
2024/01/06 03:26:23;;;;;;;19.40;14.25;;;2.00;99.90;;;;;;5072883;28;20052;-72
2024/01/06 03:28:50;;;;;;;17.92;14.27;;;1.40;99.90;;;;;;5072858;28;20049;-72
2024/01/06 03:31:16;;;;;;;20.95;15.45;;;1.40;99.90;;;;;;5071044;28;20060;-72
2024/01/06 03:33:43;;;;;;;20.40;15.82;;;1.40;99.90;;;;;;5071667;28;20045;-72
2024/01/06 03:36:09;;;;;;;21.65;16.50;;;1.40;99.90;;;;;;5054961;28;20388;-72
2024/01/06 03:38:35;;;;;;;20.65;15.80;;;1.40;99.90;;;;;;5054951;28;20159;-72
2024/01/06 03:41:01;;;;;;;19.48;15.70;;;1.90;99.90;;;;;;5072662;28;20048;-71
2024/01/06 03:43:26;;;;;;;18.27;14.05;;;1.40;99.90;;;;;;5054617;28;20046;-72
2024/01/06 03:45:52;;;;;;;17.67;14.75;;;1.40;99.90;;;;;;5054868;28;20074;-72
2024/01/06 03:48:18;;;;;;;19.63;15.15;;;1.30;99.90;;;;;;5071779;28;20051;-72
2024/01/06 03:50:43;;;;;;;18.50;14.60;;;1.40;99.90;;;;;;5054731;28;20049;-72
2024/01/06 03:53:09;;;;;;;18.67;14.55;;;1.40;99.90;;;;;;5071054;28;20049;-72
2024/01/06 03:55:35;;;;;;;18.98;14.90;;;1.30;99.90;;;;;;5037846;28;20056;-72
2024/01/06 03:58:00;;;;;;;18.73;14.35;;;1.40;99.90;;;;;;5071471;28;20048;-72
2024/01/06 04:00:26;;;;;;;19.75;15.40;;;1.40;99.90;;;;;;5070772;28;20098;-73
2024/01/06 04:02:52;;;;;;;16.13;14.07;;;1.40;99.90;;;;;;5071425;28;20106;-72
2024/01/06 04:05:18;;;;;;;19.15;14.65;;;1.40;99.90;;;;;;5071036;28;20441;-72
2024/01/06 04:07:43;;;;;;;20.48;15.45;;;1.30;99.90;;;;;;5071174;28;20210;-72
2024/01/06 04:10:09;;;;;;;18.67;13.25;;;1.70;99.90;;;;;;5070557;28;20399;-71
2024/01/06 04:12:35;;;;;;;17.92;14.15;;;1.30;99.90;;;;;;5054433;28;20055;-72
2024/01/06 04:15:00;;;;;;;15.73;13.25;;;1.40;99.90;;;;;;5054640;28;20048;-74
2024/01/06 04:17:26;;;;;;;19.95;15.13;;;1.40;99.90;;;;;;5070512;28;20360;-72
2024/01/06 04:19:53;;;;;;;18.23;14.63;;;1.40;99.90;;;;;;5071065;28;20055;-72
2024/01/06 04:22:18;;;;;;;19.08;14.23;;;1.40;99.90;;;;;;5070830;28;20045;-72
2024/01/06 04:24:44;;;;;;;18.40;14.48;;;2.30;99.90;;;;;;5054416;28;20110;-73
2024/01/06 04:27:10;;;;;;;17.55;13.77;;;1.40;99.90;;;;;;5070595;28;20476;-72
2024/01/06 04:29:36;;;;;;;16.38;13.23;;;1.40;99.90;;;;;;5071208;28;20040;-73
2024/01/06 04:32:02;;;;;;;18.45;13.93;;;1.40;99.90;;;;;;5070812;28;20086;-73
2024/01/06 04:34:27;;;;;;;19.75;14.48;;;1.30;99.90;;;;;;5071621;28;20049;-73
2024/01/06 04:36:53;;;;;;;17.58;14.88;;;2.10;99.90;;;;;;5071101;28;20047;-76
2024/01/06 04:39:19;;;;;;;18.08;14.15;;;1.40;99.90;;;;;;5070610;28;20098;-73
2024/01/06 04:41:44;;;;;;;14.88;13.10;;;1.40;99.90;;;;;;5074001;28;20080;-72
2024/01/06 04:44:10;;;;;;;15.65;13.20;;;2.20;99.90;;;;;;5074899;28;20166;-72
2024/01/06 04:46:36;;;;;;;14.15;12.60;;;1.40;99.90;;;;;;5075872;28;20189;-72
2024/01/06 04:49:02;;;;;;;14.80;13.20;;;1.40;99.90;;;;;;5074454;28;20498;-73
2024/01/06 04:51:28;;;;;;;15.68;13.88;;;1.40;99.90;;;;;;5074303;28;20105;-71
2024/01/06 04:53:53;;;;;;;15.77;13.35;;;1.40;99.90;;;;;;5074534;28;20097;-71
2024/01/06 04:56:20;;;;;;;16.70;13.55;;;1.40;99.90;;;;;;5075452;28;20102;-72
2024/01/06 04:58:46;;;;;;;16.92;14.18;;;1.40;99.90;;;;;;5074390;28;20395;-73
2024/01/06 05:01:12;;;;;;;16.15;13.07;;;1.40;99.90;;;;;;5074801;28;20506;-72
2024/01/06 05:03:37;;;;;;;16.80;12.70;;;1.30;99.90;;;;;;5075587;28;20391;-72
2024/01/06 05:06:04;;;;;;;14.50;12.90;;;1.30;99.90;;;;;;5075388;28;20095;-72
2024/01/06 05:08:30;;;;;;;15.68;13.05;;;1.40;99.90;;;;;;5074141;28;20084;-72
2024/01/06 05:10:56;;;;;;;15.27;12.52;;;1.40;99.90;;;;;;5074344;28;20067;-72
2024/01/06 05:13:22;;;;;;;19.83;13.05;;;1.40;99.90;;;;;;5075173;28;20123;-71
2024/01/06 05:15:47;;;;;;;15.98;12.65;;;1.40;99.90;;;;;;5074505;28;20040;-72
2024/01/06 05:18:13;;;;;;;16.13;12.68;;;1.40;99.90;;;;;;5074188;28;20056;-72
2024/01/06 05:20:40;;;;;;;17.10;12.95;;;1.40;99.90;;;;;;5074087;28;20125;-71
2024/01/06 05:23:07;;;;;;;16.25;11.77;;;1.40;99.90;;;;;;5057605;28;20076;-72
2024/01/06 05:25:32;;;;;;;14.73;11.55;;;1.40;99.90;;;;;;5057145;28;20048;-71
2024/01/06 05:27:58;;;;;;;16.20;13.02;;;1.40;99.90;;;;;;5075291;28;20473;-71
2024/01/06 05:30:24;;;;;;;16.08;12.07;;;1.40;99.90;;;;;;5057177;28;20044;-71
2024/01/06 05:32:50;;;;;;;16.00;12.27;;;1.40;99.90;;;;;;5074307;28;20182;-72
2024/01/06 05:35:18;;;;;;;15.40;12.38;;;1.40;99.90;;;;;;5074069;28;20040;-72
2024/01/06 05:37:44;;;;;;;14.30;11.30;;;1.40;99.90;;;;;;5073726;28;20055;-72
2024/01/06 05:40:11;;;;;;;13.40;11.48;;;1.50;99.90;;;;;;5073747;28;20052;-71
2024/01/06 05:42:37;;;;;;;15.90;11.75;;;1.50;99.90;;;;;;5040539;28;20138;-71
2024/01/06 05:45:02;;;;;;;14.07;11.43;;;1.50;99.90;;;;;;5075013;28;20127;-72
2024/01/06 05:47:28;;;;;;;12.77;10.93;;;1.40;99.90;;;;;;5056519;28;20036;-73
2024/01/06 05:49:54;;;;;;;14.55;11.43;;;1.40;99.90;;;;;;5073931;28;20040;-72
2024/01/06 05:52:19;;;;;;;13.93;11.32;;;1.60;99.90;;;;;;5072457;28;20050;-71
2024/01/06 05:54:45;;;;;;;12.23;10.90;;;2.00;99.90;;;;;;5074545;28;20048;-71
2024/01/06 05:57:11;;;;;;;13.60;11.30;;;1.50;99.90;;;;;;5073246;28;20567;-72
2024/01/06 05:59:37;;;;;;;14.68;11.55;;;1.50;99.90;;;;;;5073323;28;20056;-74
2024/01/06 06:02:03;;;;;;;14.57;11.77;;;1.50;99.90;;;;;;5073643;28;20040;-72
2024/01/06 06:04:29;;;;;;;14.13;11.85;;;1.50;99.90;;;;;;5073056;28;20055;-72
2024/01/06 06:06:54;;;;;;;13.68;11.45;;;1.50;99.90;;;;;;5073656;28;20400;-72
2024/01/06 06:09:21;;;;;;;15.40;12.35;;;1.50;99.90;;;;;;5072984;28;20040;-73
2024/01/06 06:11:48;;;;;;;15.10;12.35;;;1.50;99.90;;;;;;5073473;28;20064;-72
2024/01/06 06:14:14;;;;;;;14.50;12.52;;;1.50;99.90;;;;;;5056939;28;20131;-72
2024/01/06 06:16:39;;;;;;;15.68;13.02;;;1.70;99.90;;;;;;5073100;28;20136;-72
2024/01/06 06:19:05;;;;;;;14.43;12.13;;;1.50;99.90;;;;;;5073230;28;20084;-72
2024/01/06 06:21:31;;;;;;;13.35;11.98;;;1.50;99.90;;;;;;5072924;28;20048;-72
2024/01/06 06:23:57;;;;;;;16.42;13.07;;;1.50;99.90;;;;;;5074382;28;20389;-73
2024/01/06 06:26:23;;;;;;;16.67;14.10;;;1.50;99.90;;;;;;5072992;28;20480;-72
2024/01/06 06:28:49;;;;;;;17.63;13.13;;;1.50;99.90;;;;;;5055769;28;20043;-72
2024/01/06 06:31:14;;;;;;;16.00;13.38;;;2.20;99.90;;;;;;5073006;28;20044;-72
2024/01/06 06:33:40;;;;;;;15.75;14.00;;;1.60;99.90;;;;;;5056028;28;20161;-72
2024/01/06 06:36:06;;;;;;;16.67;14.00;;;1.60;99.90;;;;;;5072793;28;20052;-72
2024/01/06 06:38:32;;;;;;;17.67;14.55;;;1.60;99.90;;;;;;5072368;28;20058;-71
2024/01/06 06:40:57;;;;;;;16.40;14.65;;;1.50;99.90;;;;;;5073980;28;20135;-73
2024/01/06 06:43:23;;;;;;;16.38;14.52;;;1.80;99.90;;;;;;5073621;28;20076;-73
2024/01/06 06:45:49;;;;;;;16.75;13.63;;;1.60;99.90;;;;;;5073525;28;20048;-74
2024/01/06 06:48:14;;;;;;;17.75;15.15;;;1.60;99.90;;;;;;5072372;28;20043;-71
2024/01/06 06:50:41;;;;;;;17.83;14.98;;;1.60;99.90;;;;;;5072196;28;20044;-72
2024/01/06 06:53:08;;;;;;;18.13;15.70;;;1.60;99.90;;;;;;5073847;28;20078;-71
2024/01/06 06:55:33;;;;;;;18.48;15.27;;;1.60;99.90;;;;;;5072081;28;20091;-72
2024/01/06 06:57:59;;;;;;;18.33;15.40;;;1.60;99.90;;;;;;5072661;28;20079;-73
2024/01/06 07:00:25;;;;;;;19.15;15.45;;;1.60;99.90;;;;;;5072292;28;20070;-73
2024/01/06 07:02:51;;;;;;;21.42;16.38;;;1.60;99.90;;;;;;5071948;28;20097;-73
2024/01/06 07:05:17;;;;;;;23.15;16.35;;;1.60;99.90;;;;;;5072210;28;20048;-74
2024/01/06 07:07:46;;;;;;;19.48;17.27;;;1.70;99.90;;;;;;5072021;28;20041;-73
2024/01/06 07:10:13;;;;;;;19.60;16.35;;;1.60;99.90;;;;;;5071927;28;20059;-73
2024/01/06 07:12:38;;;;;;;24.17;16.95;;;1.60;99.90;;;;;;5072945;28;20045;-73
2024/01/06 07:15:04;;;;;;;21.35;17.60;;;2.10;99.90;;;;;;5072181;28;20071;-73
2024/01/06 07:17:30;;;;;;;19.02;16.00;;;1.60;99.90;;;;;;5073053;28;20089;-72
2024/01/06 07:19:56;;;;;;;19.35;17.33;;;1.60;99.90;;;;;;5071491;28;20051;-73
2024/01/06 07:22:22;;;;;;;20.52;16.60;;;1.60;99.90;;;;;;5038734;28;20062;-72
2024/01/06 07:24:47;;;;;;;20.77;17.33;;;1.60;99.90;;;;;;5071706;28;20048;-74
2024/01/06 07:27:13;;;;;;;19.67;16.75;;;1.60;99.90;;;;;;5073048;28;20131;-73
2024/01/06 07:29:39;;;;;;;19.38;16.48;;;1.60;99.90;;;;;;5072538;28;20107;-72
2024/01/06 07:32:07;;;;;;;21.25;17.20;;;1.60;99.90;;;;;;5071799;28;20123;-73
2024/01/06 07:34:33;;;;;;;19.60;17.50;;;1.60;99.90;;;;;;5071686;28;20037;-72
2024/01/06 07:36:59;;;;;;;21.25;17.42;;;1.60;99.90;;;;;;5054994;28;20051;-73
2024/01/06 07:39:25;;;;;;;22.35;17.83;;;1.60;99.90;;;;;;5071841;28;20049;-73
2024/01/06 07:41:51;;;;;;;21.13;17.80;;;1.60;99.90;;;;;;5072112;28;20045;-73
2024/01/06 07:44:22;;;;;;;24.88;18.65;;;1.60;99.90;;;;;;5055014;28;20048;-72
2024/01/06 07:46:48;;;;;;;23.55;18.33;;;1.60;99.90;;;;;;5070873;28;20539;-72
2024/01/06 07:49:15;;;;;;;21.00;17.90;;;1.60;99.90;;;;;;5072513;28;20127;-72
2024/01/06 07:51:41;;;;;;;24.58;18.38;;;2.00;99.90;;;;;;5071021;28;20144;-72
2024/01/06 07:54:08;;;;;;;22.45;18.85;;;1.60;99.90;;;;;;5054786;28;20519;-72
2024/01/06 07:56:35;;;;;;;20.85;18.30;;;1.60;99.90;;;;;;5037963;28;20052;-72
2024/01/06 07:59:01;;;;;;;24.08;19.65;;;1.70;99.90;;;;;;5054181;28;20049;-71
2024/01/06 08:01:27;;;;;;;22.10;18.38;;;2.40;99.90;;;;;;5072242;28;20040;-72
2024/01/06 08:03:53;;;;;;;20.60;18.23;;;1.60;99.90;;;;;;5054359;28;20129;-72
2024/01/06 08:06:19;;;;;;;21.42;17.95;;;1.70;99.90;;;;;;5071407;28;20056;-72
2024/01/06 08:08:45;;;;;;;21.83;17.63;;;1.70;99.90;;;;;;5070588;28;20048;-72
2024/01/06 08:11:11;;;;;;;21.77;17.80;;;2.60;99.90;;;;;;5070876;28;20052;-73
2024/01/06 08:13:37;;;;;;;22.80;17.73;;;1.70;99.90;;;;;;5072042;28;20212;-73
2024/01/06 08:16:04;;;;;;;22.02;17.08;;;1.70;99.90;;;;;;5069686;28;20139;-72
2024/01/06 08:18:30;;;;;;;19.20;16.90;;;1.70;99.90;;;;;;5071963;28;20049;-73
2024/01/06 08:20:56;;;;;;;21.90;17.55;;;1.70;99.90;;;;;;5053955;28;20041;-72
2024/01/06 08:23:21;;;;;;;23.63;17.10;;;1.70;99.90;;;;;;5072002;28;20122;-72
2024/01/06 08:25:48;;;;;;;20.67;17.73;;;1.70;99.90;;;;;;5070401;28;20041;-73
2024/01/06 08:28:14;;;;;;;19.13;17.08;;;1.70;99.90;;;;;;5070868;28;20059;-72
2024/01/06 08:30:40;;;;;;;22.88;17.77;;;1.80;99.90;;;;;;5070913;28;20052;-73
2024/01/06 08:33:06;;;;;;;22.05;17.83;;;2.00;99.90;;;;;;5037459;28;20044;-72
2024/01/06 08:35:32;;;;;;;23.10;18.63;;;1.70;99.90;;;;;;5072002;28;20048;-73
2024/01/06 08:37:58;;;;;;;21.67;17.38;;;1.80;99.90;;;;;;5071335;28;20040;-72
2024/01/06 08:40:23;;;;;;;23.50;18.30;;;1.70;99.90;;;;;;5071681;28;20105;-73
2024/01/06 08:42:49;;;;;;;19.52;16.85;;;1.70;99.90;;;;;;5071746;28;20495;-71
2024/01/06 08:45:15;;;;;;;21.95;17.00;;;2.20;99.90;;;;;;5070757;28;20049;-71
2024/01/06 08:47:41;;;;;;;19.27;16.48;;;1.70;99.90;;;;;;5054207;28;20476;-74
2024/01/06 08:50:07;;;;;;;22.92;18.05;;;2.20;99.90;;;;;;5053719;28;20083;-71
2024/01/06 08:52:33;;;;;;;20.58;17.00;;;1.80;99.90;;;;;;5071660;28;20044;-72
2024/01/06 08:54:58;;;;;;;20.55;16.85;;;2.10;99.90;;;;;;5070176;28;20494;-73
2024/01/06 08:57:24;;;;;;;21.20;17.65;;;2.10;99.90;;;;;;5070670;28;20095;-71
2024/01/06 08:59:50;;;;;;;19.05;16.80;;;1.80;99.90;;;;;;5070799;28;20041;-71
2024/01/06 09:02:15;;;;;;;19.92;17.25;;;1.80;99.90;;;;;;5071743;28;20097;-71
2024/01/06 09:04:41;;;;;;;19.55;17.10;;;1.80;99.90;;;;;;5053797;28;20444;-72
2024/01/06 09:07:07;;;;;;;19.63;16.45;;;1.80;99.90;;;;;;5071147;28;20041;-72
2024/01/06 09:09:33;;;;;;;20.88;16.75;;;3.00;99.90;;;;;;5070133;28;20060;-73
2024/01/06 09:12:00;;;;;;;19.92;17.45;;;2.50;99.90;;;;;;5069993;28;20372;-72
2024/01/06 09:14:26;;;;;;;19.63;16.77;;;1.80;99.90;;;;;;5071346;28;20499;-72
2024/01/06 09:16:51;;;;;;;19.00;16.50;;;1.90;99.90;;;;;;5070041;28;20048;-72
2024/01/06 09:19:17;;;;;;;17.88;15.90;;;1.90;99.90;;;;;;5070232;28;20063;-72
2024/01/06 09:21:43;;;;;;;21.98;16.55;;;1.90;99.90;;;;;;5071548;28;20048;-71
2024/01/06 09:24:08;;;;;;;18.23;15.60;;;2.40;99.90;;;;;;5036935;28;20691;-72
2024/01/06 09:26:34;;;;;;;17.80;15.45;;;1.90;99.90;;;;;;5072875;28;20495;-73
2024/01/06 09:29:01;;;;;;;20.30;15.65;;;1.90;99.90;;;;;;5074713;28;20044;-72
2024/01/06 09:31:27;;;;;;;18.40;15.65;;;1.90;99.90;;;;;;5075105;28;20098;-72
2024/01/06 09:33:53;;;;;;;19.13;15.68;;;1.90;99.90;;;;;;5073452;28;20503;-72
2024/01/06 09:36:18;;;;;;;18.45;15.90;;;1.90;99.90;;;;;;5073768;28;20078;-72
2024/01/06 09:38:44;;;;;;;18.20;15.48;;;1.90;99.90;;;;;;5073963;28;20059;-71
2024/01/06 09:41:10;;;;;;;19.67;15.95;;;2.00;99.90;;;;;;5074372;28;20726;-72
2024/01/06 09:43:37;;;;;;;18.95;16.92;;;2.20;99.90;;;;;;5074768;28;20514;-73
2024/01/06 09:46:11;;;;;;;18.65;16.65;;;1.90;99.90;;;;;;5072993;28;20052;-72
2024/01/06 09:48:43;;;;;;;19.23;16.67;;;1.90;99.90;;;;;;5073575;28;20041;-72
2024/01/06 09:51:12;;;;;;;17.83;15.57;;;1.90;99.90;;;;;;5074391;28;20123;-73
2024/01/06 09:53:47;;;;;;;17.63;15.60;;;1.90;99.90;;;;;;5073653;28;20136;-73
2024/01/06 09:56:15;;;;;;;20.13;16.65;;;2.00;99.90;;;;;;5072721;28;20739;-71
2024/01/06 09:58:42;;;;;;;18.90;16.25;;;1.90;99.90;;;;;;5074547;28;20049;-71
2024/01/06 10:01:08;;;;;;;18.10;14.82;;;2.00;99.90;;;;;;5074092;28;20048;-74
2024/01/06 10:03:36;;;;;;;17.20;14.80;;;2.00;99.90;;;;;;5074823;28;20053;-74
2024/01/06 10:06:04;;;;;;;19.88;15.82;;;2.00;99.90;;;;;;5074151;28;20048;-72
2024/01/06 10:08:32;;;;;;;19.17;16.33;;;2.00;99.90;;;;;;5073315;28;20052;-72
2024/01/06 10:10:59;;;;;;;19.27;16.00;;;2.10;99.90;;;;;;5073658;28;20492;-72
2024/01/06 10:13:25;;;;;;;17.58;14.45;;;2.00;99.90;;;;;;5056730;28;20057;-72
2024/01/06 10:15:51;;;;;;;17.40;14.77;;;2.10;99.90;;;;;;5073285;28;20056;-73
2024/01/06 10:18:18;;;;;;;18.38;15.70;;;2.10;99.90;;;;;;5073940;28;20041;-71
2024/01/06 10:20:47;;;;;;;18.90;16.52;;;2.10;99.90;;;;;;5073026;28;20040;-72
2024/01/06 10:23:13;;;;;;;23.02;16.58;;;2.10;99.90;;;;;;5073786;28;20052;-71
2024/01/06 10:25:42;;;;;;;19.17;15.65;;;2.10;99.90;;;;;;5073288;28;20148;-72
2024/01/06 10:28:12;;;;;;;21.02;16.52;;;2.10;99.90;;;;;;5056388;28;20079;-72
2024/01/06 10:30:38;;;;;;;18.65;16.13;;;2.10;99.90;;;;;;5073957;28;20048;-72
2024/01/06 10:33:10;;;;;;;18.15;15.63;;;2.10;99.90;;;;;;5072454;28;20051;-71
2024/01/06 10:35:37;;;;;;;17.83;15.75;;;2.10;99.90;;;;;;5090241;28;20121;-72
2024/01/06 10:38:03;;;;;;;18.05;15.65;;;2.40;99.90;;;;;;5071768;28;20049;-72
2024/01/06 10:40:29;;;;;;;18.08;15.55;;;2.10;99.90;;;;;;5056116;28;20106;-72
2024/01/06 10:42:58;;;;;;;20.73;16.10;;;2.10;99.90;;;;;;5072753;28;20464;-72
2024/01/06 10:45:25;;;;;;;16.55;13.60;;;2.10;99.90;;;;;;5073401;28;20052;-74
2024/01/06 10:47:52;;;;;;;16.88;14.75;;;2.10;99.90;;;;;;5073817;28;20474;-73
2024/01/06 10:50:18;;;;;;;16.25;14.38;;;2.10;99.90;;;;;;5072005;28;20045;-72
2024/01/06 10:52:44;;;;;;;17.52;14.88;;;2.00;99.90;;;;;;5072564;28;20144;-73
2024/01/06 10:55:11;;;;;;;16.40;14.15;;;2.50;99.90;;;;;;5072601;28;20110;-73
2024/01/06 10:57:40;;;;;;;16.85;14.07;;;2.10;99.90;;;;;;5071617;28;20486;-74
2024/01/06 11:00:07;;;;;;;16.48;14.23;;;2.10;99.90;;;;;;5071900;28;20059;-72
2024/01/06 11:02:35;;;;;;;14.88;13.27;;;2.10;99.90;;;;;;5071833;28;20059;-74
2024/01/06 11:05:00;;;;;;;16.20;13.43;;;2.10;99.90;;;;;;5073386;28;20048;-73
2024/01/06 11:07:28;;;;;;;15.07;12.88;;;2.10;99.90;;;;;;5072936;28;20475;-72
2024/01/06 11:10:02;;;;;;;15.43;13.35;;;2.10;99.90;;;;;;5073183;28;20053;-72
2024/01/06 11:12:28;;;;;;;13.20;11.50;;;2.10;99.90;;;;;;5071319;28;20118;-70
2024/01/06 11:14:54;;;;;;;13.18;11.55;;;2.10;99.90;;;;;;5073170;28;20142;-70
2024/01/06 11:17:53;;;;;;;13.10;11.70;;;2.10;99.90;;;;;;5071784;28;20087;-70
2024/01/06 11:20:20;;;;;;;15.02;11.35;;;2.10;99.90;;;;;;5071606;28;20049;-71
2024/01/06 11:22:46;;;;;;;12.57;11.23;;;2.10;99.90;;;;;;5072948;28;20052;-71
2024/01/06 11:25:17;;;;;;;13.45;12.05;;;2.30;99.90;;;;;;5072565;28;20097;-71
2024/01/06 11:27:46;;;;;;;13.88;10.95;;;2.10;99.90;;;;;;5071404;28;20495;-74
2024/01/06 11:30:23;;;;;;;12.15;10.85;;;2.30;99.90;;;;;;5071098;28;20049;-72
2024/01/06 11:32:52;;;;;;;12.63;11.13;;;2.10;99.90;;;;;;5072795;28;20403;-73
2024/01/06 11:35:18;;;;;;;13.48;10.85;;;2.20;99.90;;;;;;5071196;28;20230;-72
2024/01/06 11:37:45;;;;;;;12.65;9.85;;;2.20;99.90;;;;;;5072605;28;20044;-72
2024/01/06 11:40:21;;;;;;;11.55;9.63;;;2.20;99.90;;;;;;5070973;28;20052;-71
2024/01/06 11:42:56;;;;;;;10.93;9.57;;;2.20;99.90;;;;;;5072390;28;20040;-72
2024/01/06 11:45:21;;;;;;;11.38;9.82;;;2.10;99.90;;;;;;5072041;28;20049;-74
2024/01/06 11:47:48;;;;;;;11.15;8.98;;;2.10;99.90;;;;;;5072181;28;20486;-72
2024/01/06 11:50:14;;;;;;;11.55;9.98;;;2.10;99.90;;;;;;5070766;28;20082;-72
2024/01/06 11:52:40;;;;;;;11.65;9.93;;;2.20;99.90;;;;;;5054601;28;20096;-71
2024/01/06 11:55:09;;;;;;;12.57;10.25;;;2.10;99.90;;;;;;5071106;28;20088;-72
2024/01/06 11:57:35;;;;;;;12.23;9.73;;;2.10;99.90;;;;;;5072923;28;20053;-76
2024/01/06 12:00:01;;;;;;;13.60;11.23;;;2.20;99.90;;;;;;5072185;28;20064;-75
2024/01/06 12:02:29;;;;;;;11.98;10.05;;;2.20;99.90;;;;;;5070681;28;20049;-74
2024/01/06 12:04:54;;;;;;;12.57;10.05;;;2.10;99.90;;;;;;5054270;28;20036;-74
2024/01/06 12:07:24;;;;;;;11.48;9.50;;;2.10;99.90;;;;;;5070748;28;20148;-73
2024/01/06 12:10:11;;;;;;;12.43;9.63;;;2.10;99.90;;;;;;5072172;28;20048;-73
2024/01/06 12:12:37;;;;;;;11.23;9.43;;;2.00;99.90;;;;;;5070810;28;20055;-74
2024/01/06 12:15:04;;;;;;;12.25;10.07;;;2.20;99.90;;;;;;5054654;28;20040;-74
2024/01/06 12:17:30;;;;;;;10.98;9.27;;;2.00;99.90;;;;;;5053847;28;20052;-73
2024/01/06 12:19:57;;;;;;;11.38;9.65;;;2.00;99.90;;;;;;5072142;28;20395;-73
2024/01/06 12:22:23;;;;;;;11.95;9.38;;;2.00;99.90;;;;;;5071732;28;20399;-73
2024/01/06 12:24:52;;;;;;;12.77;10.05;;;2.00;99.90;;;;;;5054305;28;20044;-73
2024/01/06 12:27:18;;;;;;;11.25;8.98;;;2.00;99.90;;;;;;5054072;28;20076;-71
2024/01/06 12:29:44;;;;;;;11.68;9.20;;;2.00;99.90;;;;;;5071943;28;20049;-74
2024/01/06 12:32:13;;;;;;;11.77;9.23;;;2.00;99.90;;;;;;5072293;28;20117;-73
2024/01/06 12:34:39;;;;;;;11.82;9.48;;;2.00;99.90;;;;;;5070492;28;20476;-74